sensor_id;sensor_type;location;lat;lon;timestamp;P1;durP1;ratioP1;P2;durP2;ratioP2
63217;SDS011;49314;48.278;16.378;2023-04-15T00:01:20;14.20;;;13.80;;
63217;SDS011;49314;48.278;16.378;2023-04-15T00:03:46;9.20;;;8.90;;
63217;SDS011;49314;48.278;16.378;2023-04-15T00:06:12;14.73;;;14.23;;
63217;SDS011;49314;48.278;16.378;2023-04-15T00:08:37;14.00;;;13.35;;
63217;SDS011;49314;48.278;16.378;2023-04-15T00:11:03;14.48;;;14.02;;
63217;SDS011;49314;48.278;16.378;2023-04-15T00:13:30;13.43;;;12.90;;
63217;SDS011;49314;48.278;16.378;2023-04-15T00:15:55;10.85;;;10.45;;
63217;SDS011;49314;48.278;16.378;2023-04-15T00:18:20;10.40;;;10.10;;
63217;SDS011;49314;48.278;16.378;2023-04-15T00:20:45;7.72;;;7.53;;
63217;SDS011;49314;48.278;16.378;2023-04-15T00:23:11;13.38;;;12.98;;
63217;SDS011;49314;48.278;16.378;2023-04-15T00:25:36;8.40;;;8.18;;
63217;SDS011;49314;48.278;16.378;2023-04-15T00:28:01;12.82;;;12.48;;
63217;SDS011;49314;48.278;16.378;2023-04-15T00:30:27;8.35;;;8.15;;
63217;SDS011;49314;48.278;16.378;2023-04-15T00:32:53;10.27;;;9.95;;
63217;SDS011;49314;48.278;16.378;2023-04-15T00:35:18;7.13;;;6.93;;
63217;SDS011;49314;48.278;16.378;2023-04-15T00:37:43;7.72;;;7.53;;
63217;SDS011;49314;48.278;16.378;2023-04-15T00:40:10;10.13;;;9.82;;
63217;SDS011;49314;48.278;16.378;2023-04-15T00:42:36;8.18;;;7.95;;
63217;SDS011;49314;48.278;16.378;2023-04-15T00:45:01;9.35;;;9.07;;
63217;SDS011;49314;48.278;16.378;2023-04-15T00:47:27;11.10;;;10.80;;
63217;SDS011;49314;48.278;16.378;2023-04-15T00:49:53;12.13;;;11.80;;
63217;SDS011;49314;48.278;16.378;2023-04-15T00:52:19;4.05;;;3.95;;
63217;SDS011;49314;48.278;16.378;2023-04-15T00:54:44;6.40;;;6.20;;
63217;SDS011;49314;48.278;16.378;2023-04-15T00:57:09;9.32;;;8.98;;
63217;SDS011;49314;48.278;16.378;2023-04-15T00:59:34;11.85;;;11.50;;
63217;SDS011;49314;48.278;16.378;2023-04-15T01:02:00;6.97;;;6.78;;
63217;SDS011;49314;48.278;16.378;2023-04-15T01:04:25;10.20;;;9.93;;
63217;SDS011;49314;48.278;16.378;2023-04-15T01:06:51;14.00;;;13.60;;
63217;SDS011;49314;48.278;16.378;2023-04-15T01:09:16;7.93;;;7.53;;
63217;SDS011;49314;48.278;16.378;2023-04-15T01:11:42;6.43;;;6.20;;
63217;SDS011;49314;48.278;16.378;2023-04-15T01:14:08;8.55;;;8.18;;
63217;SDS011;49314;48.278;16.378;2023-04-15T01:16:33;8.05;;;7.85;;
63217;SDS011;49314;48.278;16.378;2023-04-15T01:18:58;10.55;;;10.25;;
63217;SDS011;49314;48.278;16.378;2023-04-15T01:21:23;12.38;;;12.00;;
63217;SDS011;49314;48.278;16.378;2023-04-15T01:23:49;8.80;;;8.57;;
63217;SDS011;49314;48.278;16.378;2023-04-15T01:26:15;14.20;;;13.75;;
63217;SDS011;49314;48.278;16.378;2023-04-15T01:28:40;10.55;;;10.25;;
63217;SDS011;49314;48.278;16.378;2023-04-15T01:31:13;8.98;;;8.70;;
63217;SDS011;49314;48.278;16.378;2023-04-15T01:33:39;6.43;;;6.22;;
63217;SDS011;49314;48.278;16.378;2023-04-15T01:36:05;6.18;;;6.03;;
63217;SDS011;49314;48.278;16.378;2023-04-15T01:38:32;6.90;;;6.70;;
63217;SDS011;49314;48.278;16.378;2023-04-15T01:40:57;7.30;;;7.10;;
63217;SDS011;49314;48.278;16.378;2023-04-15T01:43:23;8.43;;;8.18;;
63217;SDS011;49314;48.278;16.378;2023-04-15T01:45:49;5.97;;;5.78;;
63217;SDS011;49314;48.278;16.378;2023-04-15T01:48:14;10.05;;;9.73;;
63217;SDS011;49314;48.278;16.378;2023-04-15T01:50:40;9.20;;;8.98;;
63217;SDS011;49314;48.278;16.378;2023-04-15T01:53:06;12.27;;;11.90;;
63217;SDS011;49314;48.278;16.378;2023-04-15T01:55:32;5.97;;;5.80;;
63217;SDS011;49314;48.278;16.378;2023-04-15T01:57:57;5.28;;;5.07;;
63217;SDS011;49314;48.278;16.378;2023-04-15T02:00:23;6.95;;;6.72;;
63217;SDS011;49314;48.278;16.378;2023-04-15T02:02:48;7.25;;;6.95;;
63217;SDS011;49314;48.278;16.378;2023-04-15T02:05:14;7.13;;;6.90;;
63217;SDS011;49314;48.278;16.378;2023-04-15T02:07:41;8.30;;;8.07;;
63217;SDS011;49314;48.278;16.378;2023-04-15T02:10:06;9.75;;;9.50;;
63217;SDS011;49314;48.278;16.378;2023-04-15T02:12:31;10.65;;;10.25;;
63217;SDS011;49314;48.278;16.378;2023-04-15T02:14:57;6.25;;;5.97;;
63217;SDS011;49314;48.278;16.378;2023-04-15T02:17:22;4.60;;;4.50;;
63217;SDS011;49314;48.278;16.378;2023-04-15T02:19:47;8.60;;;8.40;;
63217;SDS011;49314;48.278;16.378;2023-04-15T02:22:13;5.43;;;5.32;;
63217;SDS011;49314;48.278;16.378;2023-04-15T02:24:42;8.48;;;8.27;;
63217;SDS011;49314;48.278;16.378;2023-04-15T02:27:07;7.35;;;7.15;;
63217;SDS011;49314;48.278;16.378;2023-04-15T02:29:33;6.28;;;6.07;;
63217;SDS011;49314;48.278;16.378;2023-04-15T02:31:58;8.27;;;7.97;;
63217;SDS011;49314;48.278;16.378;2023-04-15T02:34:23;10.20;;;9.88;;
63217;SDS011;49314;48.278;16.378;2023-04-15T02:36:48;5.05;;;4.85;;
63217;SDS011;49314;48.278;16.378;2023-04-15T02:39:18;8.32;;;8.05;;
63217;SDS011;49314;48.278;16.378;2023-04-15T02:41:44;3.70;;;3.45;;
63217;SDS011;49314;48.278;16.378;2023-04-15T02:44:11;6.57;;;6.38;;
63217;SDS011;49314;48.278;16.378;2023-04-15T02:46:37;13.82;;;13.35;;
63217;SDS011;49314;48.278;16.378;2023-04-15T02:49:02;8.55;;;8.30;;
63217;SDS011;49314;48.278;16.378;2023-04-15T02:51:28;7.30;;;7.00;;
63217;SDS011;49314;48.278;16.378;2023-04-15T02:53:55;10.02;;;9.60;;
63217;SDS011;49314;48.278;16.378;2023-04-15T02:56:20;6.07;;;5.93;;
63217;SDS011;49314;48.278;16.378;2023-04-15T02:58:47;7.65;;;7.38;;
63217;SDS011;49314;48.278;16.378;2023-04-15T03:01:14;6.88;;;6.63;;
63217;SDS011;49314;48.278;16.378;2023-04-15T03:03:39;9.75;;;9.48;;
63217;SDS011;49314;48.278;16.378;2023-04-15T03:06:05;8.20;;;7.97;;
63217;SDS011;49314;48.278;16.378;2023-04-15T03:08:30;7.20;;;6.95;;
63217;SDS011;49314;48.278;16.378;2023-04-15T03:10:57;5.97;;;5.78;;
63217;SDS011;49314;48.278;16.378;2023-04-15T03:13:24;5.85;;;5.65;;
63217;SDS011;49314;48.278;16.378;2023-04-15T03:15:49;5.75;;;5.55;;
63217;SDS011;49314;48.278;16.378;2023-04-15T03:18:15;4.28;;;4.18;;
63217;SDS011;49314;48.278;16.378;2023-04-15T03:20:40;7.00;;;6.80;;
63217;SDS011;49314;48.278;16.378;2023-04-15T03:23:06;5.03;;;4.93;;
63217;SDS011;49314;48.278;16.378;2023-04-15T03:25:31;6.90;;;6.70;;
63217;SDS011;49314;48.278;16.378;2023-04-15T03:27:56;4.72;;;4.57;;
63217;SDS011;49314;48.278;16.378;2023-04-15T03:30:22;6.72;;;6.53;;
63217;SDS011;49314;48.278;16.378;2023-04-15T03:32:47;8.43;;;8.15;;
63217;SDS011;49314;48.278;16.378;2023-04-15T03:35:12;5.00;;;4.90;;
63217;SDS011;49314;48.278;16.378;2023-04-15T03:37:37;7.70;;;7.50;;
63217;SDS011;49314;48.278;16.378;2023-04-15T03:40:03;5.05;;;4.95;;
63217;SDS011;49314;48.278;16.378;2023-04-15T03:42:28;5.95;;;5.75;;
63217;SDS011;49314;48.278;16.378;2023-04-15T03:44:53;3.25;;;3.15;;
63217;SDS011;49314;48.278;16.378;2023-04-15T03:47:18;6.63;;;6.43;;
63217;SDS011;49314;48.278;16.378;2023-04-15T03:49:44;8.27;;;8.00;;
63217;SDS011;49314;48.278;16.378;2023-04-15T03:52:09;6.97;;;6.75;;
63217;SDS011;49314;48.278;16.378;2023-04-15T03:54:34;5.38;;;5.07;;
63217;SDS011;49314;48.278;16.378;2023-04-15T03:56:59;5.85;;;5.65;;
63217;SDS011;49314;48.278;16.378;2023-04-15T03:59:25;8.73;;;8.35;;
63217;SDS011;49314;48.278;16.378;2023-04-15T04:01:50;6.70;;;6.40;;
63217;SDS011;49314;48.278;16.378;2023-04-15T04:04:16;6.20;;;6.00;;
63217;SDS011;49314;48.278;16.378;2023-04-15T04:06:41;5.60;;;5.45;;
63217;SDS011;49314;48.278;16.378;2023-04-15T04:09:06;6.03;;;5.82;;
63217;SDS011;49314;48.278;16.378;2023-04-15T04:11:31;7.15;;;6.95;;
63217;SDS011;49314;48.278;16.378;2023-04-15T04:13:57;7.10;;;6.90;;
63217;SDS011;49314;48.278;16.378;2023-04-15T04:16:22;6.18;;;5.97;;
63217;SDS011;49314;48.278;16.378;2023-04-15T04:18:47;8.35;;;8.05;;
63217;SDS011;49314;48.278;16.378;2023-04-15T04:21:13;7.65;;;7.43;;
63217;SDS011;49314;48.278;16.378;2023-04-15T04:23:38;8.07;;;7.82;;
63217;SDS011;49314;48.278;16.378;2023-04-15T04:26:03;7.70;;;7.40;;
63217;SDS011;49314;48.278;16.378;2023-04-15T04:28:28;6.93;;;6.72;;
63217;SDS011;49314;48.278;16.378;2023-04-15T04:30:54;6.30;;;6.10;;
63217;SDS011;49314;48.278;16.378;2023-04-15T04:33:19;5.53;;;5.32;;
63217;SDS011;49314;48.278;16.378;2023-04-15T04:35:45;7.47;;;7.22;;
63217;SDS011;49314;48.278;16.378;2023-04-15T04:38:10;7.07;;;6.75;;
63217;SDS011;49314;48.278;16.378;2023-04-15T04:40:36;7.57;;;7.28;;
63217;SDS011;49314;48.278;16.378;2023-04-15T04:43:01;6.63;;;6.32;;
63217;SDS011;49314;48.278;16.378;2023-04-15T04:45:26;7.90;;;7.50;;
63217;SDS011;49314;48.278;16.378;2023-04-15T04:47:51;6.82;;;6.55;;
63217;SDS011;49314;48.278;16.378;2023-04-15T04:50:17;9.40;;;9.10;;
63217;SDS011;49314;48.278;16.378;2023-04-15T04:52:42;7.32;;;7.05;;
63217;SDS011;49314;48.278;16.378;2023-04-15T04:55:07;3.38;;;3.17;;
63217;SDS011;49314;48.278;16.378;2023-04-15T04:57:33;8.43;;;7.63;;
63217;SDS011;49314;48.278;16.378;2023-04-15T05:00:00;7.63;;;7.32;;
63217;SDS011;49314;48.278;16.378;2023-04-15T05:02:26;6.38;;;6.18;;
63217;SDS011;49314;48.278;16.378;2023-04-15T05:04:51;5.07;;;4.88;;
63217;SDS011;49314;48.278;16.378;2023-04-15T05:07:18;7.45;;;7.05;;
63217;SDS011;49314;48.278;16.378;2023-04-15T05:09:44;5.25;;;4.95;;
63217;SDS011;49314;48.278;16.378;2023-04-15T05:12:10;11.73;;;11.02;;
63217;SDS011;49314;48.278;16.378;2023-04-15T05:14:39;8.98;;;8.48;;
63217;SDS011;49314;48.278;16.378;2023-04-15T05:17:04;4.93;;;4.72;;
63217;SDS011;49314;48.278;16.378;2023-04-15T05:19:29;5.95;;;5.75;;
63217;SDS011;49314;48.278;16.378;2023-04-15T05:21:55;8.25;;;7.95;;
63217;SDS011;49314;48.278;16.378;2023-04-15T05:24:20;6.85;;;6.57;;
63217;SDS011;49314;48.278;16.378;2023-04-15T05:26:46;6.95;;;6.72;;
63217;SDS011;49314;48.278;16.378;2023-04-15T05:29:11;4.68;;;4.47;;
63217;SDS011;49314;48.278;16.378;2023-04-15T05:31:36;6.45;;;6.25;;
63217;SDS011;49314;48.278;16.378;2023-04-15T05:34:02;4.03;;;3.83;;
63217;SDS011;49314;48.278;16.378;2023-04-15T05:36:27;5.75;;;5.55;;
63217;SDS011;49314;48.278;16.378;2023-04-15T05:38:52;4.60;;;4.40;;
63217;SDS011;49314;48.278;16.378;2023-04-15T05:41:18;8.07;;;7.65;;
63217;SDS011;49314;48.278;16.378;2023-04-15T05:43:43;5.43;;;5.22;;
63217;SDS011;49314;48.278;16.378;2023-04-15T05:46:09;7.68;;;7.47;;
63217;SDS011;49314;48.278;16.378;2023-04-15T05:48:34;6.30;;;6.00;;
63217;SDS011;49314;48.278;16.378;2023-04-15T05:50:59;5.63;;;5.32;;
63217;SDS011;49314;48.278;16.378;2023-04-15T05:53:25;7.43;;;7.10;;
63217;SDS011;49314;48.278;16.378;2023-04-15T05:55:50;6.05;;;5.85;;
63217;SDS011;49314;48.278;16.378;2023-04-15T05:58:16;7.00;;;6.78;;
63217;SDS011;49314;48.278;16.378;2023-04-15T06:00:41;5.13;;;4.93;;
63217;SDS011;49314;48.278;16.378;2023-04-15T06:03:06;5.10;;;4.70;;
63217;SDS011;49314;48.278;16.378;2023-04-15T06:05:31;6.07;;;5.88;;
63217;SDS011;49314;48.278;16.378;2023-04-15T06:07:57;6.78;;;6.50;;
63217;SDS011;49314;48.278;16.378;2023-04-15T06:10:22;5.82;;;5.63;;
63217;SDS011;49314;48.278;16.378;2023-04-15T06:12:47;6.10;;;5.90;;
63217;SDS011;49314;48.278;16.378;2023-04-15T06:15:13;5.75;;;5.45;;
63217;SDS011;49314;48.278;16.378;2023-04-15T06:17:38;6.55;;;6.15;;
63217;SDS011;49314;48.278;16.378;2023-04-15T06:20:03;6.93;;;6.63;;
63217;SDS011;49314;48.278;16.378;2023-04-15T06:22:28;5.93;;;5.63;;
63217;SDS011;49314;48.278;16.378;2023-04-15T06:24:54;3.45;;;3.25;;
63217;SDS011;49314;48.278;16.378;2023-04-15T06:27:19;5.20;;;4.97;;
63217;SDS011;49314;48.278;16.378;2023-04-15T06:29:45;3.85;;;3.60;;
63217;SDS011;49314;48.278;16.378;2023-04-15T06:32:10;6.43;;;6.03;;
63217;SDS011;49314;48.278;16.378;2023-04-15T06:34:36;5.40;;;5.00;;
63217;SDS011;49314;48.278;16.378;2023-04-15T06:37:01;5.47;;;5.28;;
63217;SDS011;49314;48.278;16.378;2023-04-15T06:39:26;6.00;;;5.70;;
63217;SDS011;49314;48.278;16.378;2023-04-15T06:41:52;6.03;;;5.72;;
63217;SDS011;49314;48.278;16.378;2023-04-15T06:44:17;7.00;;;6.60;;
63217;SDS011;49314;48.278;16.378;2023-04-15T06:46:43;4.47;;;4.28;;
63217;SDS011;49314;48.278;16.378;2023-04-15T06:49:09;4.80;;;4.50;;
63217;SDS011;49314;48.278;16.378;2023-04-15T06:51:34;4.85;;;4.65;;
63217;SDS011;49314;48.278;16.378;2023-04-15T06:54:00;5.97;;;5.68;;
63217;SDS011;49314;48.278;16.378;2023-04-15T06:56:26;5.70;;;5.40;;
63217;SDS011;49314;48.278;16.378;2023-04-15T06:58:51;5.65;;;5.35;;
63217;SDS011;49314;48.278;16.378;2023-04-15T07:01:16;4.75;;;4.45;;
63217;SDS011;49314;48.278;16.378;2023-04-15T07:03:42;5.90;;;5.60;;
63217;SDS011;49314;48.278;16.378;2023-04-15T07:06:07;4.85;;;4.65;;
63217;SDS011;49314;48.278;16.378;2023-04-15T07:08:33;4.20;;;4.00;;
63217;SDS011;49314;48.278;16.378;2023-04-15T07:10:59;5.28;;;5.07;;
63217;SDS011;49314;48.278;16.378;2023-04-15T07:13:24;5.50;;;5.30;;
63217;SDS011;49314;48.278;16.378;2023-04-15T07:15:50;5.10;;;4.63;;
63217;SDS011;49314;48.278;16.378;2023-04-15T07:18:15;5.20;;;4.90;;
63217;SDS011;49314;48.278;16.378;2023-04-15T07:20:40;4.15;;;3.90;;
63217;SDS011;49314;48.278;16.378;2023-04-15T07:23:05;3.47;;;3.22;;
63217;SDS011;49314;48.278;16.378;2023-04-15T07:25:31;5.45;;;5.15;;
63217;SDS011;49314;48.278;16.378;2023-04-15T07:27:56;4.10;;;3.90;;
63217;SDS011;49314;48.278;16.378;2023-04-15T07:30:21;4.20;;;3.90;;
63217;SDS011;49314;48.278;16.378;2023-04-15T07:32:47;4.95;;;4.65;;
63217;SDS011;49314;48.278;16.378;2023-04-15T07:35:12;4.45;;;4.15;;
63217;SDS011;49314;48.278;16.378;2023-04-15T07:37:38;4.32;;;4.13;;
63217;SDS011;49314;48.278;16.378;2023-04-15T07:40:04;4.95;;;4.75;;
63217;SDS011;49314;48.278;16.378;2023-04-15T07:42:30;3.85;;;3.65;;
63217;SDS011;49314;48.278;16.378;2023-04-15T07:44:56;4.68;;;4.38;;
63217;SDS011;49314;48.278;16.378;2023-04-15T07:47:21;4.25;;;3.95;;
63217;SDS011;49314;48.278;16.378;2023-04-15T07:49:46;3.90;;;3.65;;
63217;SDS011;49314;48.278;16.378;2023-04-15T07:52:11;5.20;;;4.85;;
63217;SDS011;49314;48.278;16.378;2023-04-15T07:54:37;5.03;;;4.60;;
63217;SDS011;49314;48.278;16.378;2023-04-15T07:57:02;4.88;;;4.57;;
63217;SDS011;49314;48.278;16.378;2023-04-15T07:59:28;4.03;;;3.72;;
63217;SDS011;49314;48.278;16.378;2023-04-15T08:01:55;4.80;;;4.53;;
63217;SDS011;49314;48.278;16.378;2023-04-15T08:04:20;4.07;;;3.85;;
63217;SDS011;49314;48.278;16.378;2023-04-15T08:06:46;4.90;;;4.70;;
63217;SDS011;49314;48.278;16.378;2023-04-15T08:09:13;3.92;;;3.72;;
63217;SDS011;49314;48.278;16.378;2023-04-15T08:11:39;3.33;;;3.22;;
63217;SDS011;49314;48.278;16.378;2023-04-15T08:14:04;5.22;;;5.03;;
63217;SDS011;49314;48.278;16.378;2023-04-15T08:16:29;3.28;;;3.17;;
63217;SDS011;49314;48.278;16.378;2023-04-15T08:18:55;4.70;;;4.50;;
63217;SDS011;49314;48.278;16.378;2023-04-15T08:21:20;4.13;;;3.92;;
63217;SDS011;49314;48.278;16.378;2023-04-15T08:23:46;6.47;;;3.40;;
63217;SDS011;49314;48.278;16.378;2023-04-15T08:26:12;2.80;;;2.70;;
63217;SDS011;49314;48.278;16.378;2023-04-15T08:28:38;3.35;;;3.15;;
63217;SDS011;49314;48.278;16.378;2023-04-15T08:31:04;2.88;;;2.78;;
63217;SDS011;49314;48.278;16.378;2023-04-15T08:33:30;2.88;;;2.78;;
63217;SDS011;49314;48.278;16.378;2023-04-15T08:35:55;3.35;;;3.10;;
63217;SDS011;49314;48.278;16.378;2023-04-15T08:38:20;3.88;;;3.60;;
63217;SDS011;49314;48.278;16.378;2023-04-15T08:40:46;2.65;;;2.55;;
63217;SDS011;49314;48.278;16.378;2023-04-15T08:43:17;3.55;;;3.03;;
63217;SDS011;49314;48.278;16.378;2023-04-15T08:45:43;1.20;;;1.10;;
63217;SDS011;49314;48.278;16.378;2023-04-15T08:48:11;2.20;;;2.10;;
63217;SDS011;49314;48.278;16.378;2023-04-15T08:50:38;2.95;;;2.85;;
63217;SDS011;49314;48.278;16.378;2023-04-15T08:53:03;4.65;;;4.35;;
63217;SDS011;49314;48.278;16.378;2023-04-15T08:55:29;3.05;;;2.95;;
63217;SDS011;49314;48.278;16.378;2023-04-15T08:57:57;2.95;;;2.70;;
63217;SDS011;49314;48.278;16.378;2023-04-15T09:00:22;2.72;;;2.63;;
63217;SDS011;49314;48.278;16.378;2023-04-15T09:02:48;3.28;;;3.08;;
63217;SDS011;49314;48.278;16.378;2023-04-15T09:05:13;3.25;;;3.15;;
63217;SDS011;49314;48.278;16.378;2023-04-15T09:07:38;2.95;;;2.85;;
63217;SDS011;49314;48.278;16.378;2023-04-15T09:10:04;4.38;;;4.07;;
63217;SDS011;49314;48.278;16.378;2023-04-15T09:12:29;3.40;;;3.30;;
63217;SDS011;49314;48.278;16.378;2023-04-15T09:14:55;3.08;;;2.97;;
63217;SDS011;49314;48.278;16.378;2023-04-15T09:17:21;2.90;;;2.80;;
63217;SDS011;49314;48.278;16.378;2023-04-15T09:19:46;2.97;;;2.88;;
63217;SDS011;49314;48.278;16.378;2023-04-15T09:22:12;3.63;;;3.42;;
63217;SDS011;49314;48.278;16.378;2023-04-15T09:24:38;3.20;;;3.10;;
63217;SDS011;49314;48.278;16.378;2023-04-15T09:27:04;3.42;;;3.33;;
63217;SDS011;49314;48.278;16.378;2023-04-15T09:29:30;3.28;;;3.08;;
63217;SDS011;49314;48.278;16.378;2023-04-15T09:31:56;3.40;;;3.30;;
63217;SDS011;49314;48.278;16.378;2023-04-15T09:34:22;3.03;;;2.92;;
63217;SDS011;49314;48.278;16.378;2023-04-15T09:36:59;4.00;;;3.80;;
63217;SDS011;49314;48.278;16.378;2023-04-15T09:39:24;1.42;;;1.38;;
63217;SDS011;49314;48.278;16.378;2023-04-15T09:42:05;4.25;;;4.13;;
63217;SDS011;49314;48.278;16.378;2023-04-15T09:44:30;4.22;;;4.03;;
63217;SDS011;49314;48.278;16.378;2023-04-15T09:46:56;4.15;;;4.03;;
63217;SDS011;49314;48.278;16.378;2023-04-15T09:49:21;3.15;;;2.95;;
63217;SDS011;49314;48.278;16.378;2023-04-15T09:51:47;4.55;;;4.45;;
63217;SDS011;49314;48.278;16.378;2023-04-15T09:54:13;3.65;;;3.40;;
63217;SDS011;49314;48.278;16.378;2023-04-15T09:56:42;2.47;;;2.38;;
63217;SDS011;49314;48.278;16.378;2023-04-15T09:59:08;4.40;;;4.30;;
63217;SDS011;49314;48.278;16.378;2023-04-15T10:01:33;3.17;;;3.08;;
63217;SDS011;49314;48.278;16.378;2023-04-15T10:04:02;3.67;;;3.38;;
63217;SDS011;49314;48.278;16.378;2023-04-15T10:06:27;4.05;;;3.95;;
63217;SDS011;49314;48.278;16.378;2023-04-15T10:08:53;2.90;;;2.70;;
63217;SDS011;49314;48.278;16.378;2023-04-15T10:11:19;2.80;;;2.70;;
63217;SDS011;49314;48.278;16.378;2023-04-15T10:13:45;3.30;;;3.15;;
63217;SDS011;49314;48.278;16.378;2023-04-15T10:16:13;3.45;;;3.25;;
63217;SDS011;49314;48.278;16.378;2023-04-15T10:18:42;2.92;;;2.83;;
63217;SDS011;49314;48.278;16.378;2023-04-15T10:21:08;3.08;;;2.88;;
63217;SDS011;49314;48.278;16.378;2023-04-15T10:23:33;2.80;;;2.70;;
63217;SDS011;49314;48.278;16.378;2023-04-15T10:25:59;2.92;;;2.83;;
63217;SDS011;49314;48.278;16.378;2023-04-15T10:28:24;2.78;;;2.67;;
63217;SDS011;49314;48.278;16.378;2023-04-15T10:30:50;2.97;;;2.88;;
63217;SDS011;49314;48.278;16.378;2023-04-15T10:33:18;2.70;;;2.45;;
63217;SDS011;49314;48.278;16.378;2023-04-15T10:35:44;2.60;;;2.50;;
63217;SDS011;49314;48.278;16.378;2023-04-15T10:40:55;3.80;;;3.60;;
63217;SDS011;49314;48.278;16.378;2023-04-15T10:43:35;3.03;;;2.58;;
63217;SDS011;49314;48.278;16.378;2023-04-15T10:46:03;3.80;;;3.60;;
63217;SDS011;49314;48.278;16.378;2023-04-15T10:48:29;3.92;;;3.65;;
63217;SDS011;49314;48.278;16.378;2023-04-15T10:50:55;2.63;;;2.55;;
63217;SDS011;49314;48.278;16.378;2023-04-15T10:53:29;3.55;;;3.45;;
63217;SDS011;49314;48.278;16.378;2023-04-15T10:55:57;3.90;;;3.80;;
63217;SDS011;49314;48.278;16.378;2023-04-15T10:58:25;3.25;;;3.15;;
63217;SDS011;49314;48.278;16.378;2023-04-15T11:00:51;2.90;;;2.80;;
63217;SDS011;49314;48.278;16.378;2023-04-15T11:03:33;2.58;;;2.47;;
63217;SDS011;49314;48.278;16.378;2023-04-15T11:06:00;2.10;;;2.00;;
63217;SDS011;49314;48.278;16.378;2023-04-15T11:11:09;2.20;;;2.15;;
63217;SDS011;49314;48.278;16.378;2023-04-15T11:13:34;3.35;;;3.15;;
63217;SDS011;49314;48.278;16.378;2023-04-15T11:16:00;3.25;;;3.05;;
63217;SDS011;49314;48.278;16.378;2023-04-15T11:18:26;3.75;;;3.55;;
63217;SDS011;49314;48.278;16.378;2023-04-15T11:23:39;2.50;;;2.50;;
63217;SDS011;49314;48.278;16.378;2023-04-15T11:26:06;2.67;;;2.58;;
63217;SDS011;49314;48.278;16.378;2023-04-15T11:28:34;2.95;;;2.85;;
63217;SDS011;49314;48.278;16.378;2023-04-15T11:31:10;2.72;;;2.60;;
63217;SDS011;49314;48.278;16.378;2023-04-15T11:33:35;3.05;;;2.95;;
63217;SDS011;49314;48.278;16.378;2023-04-15T11:36:00;3.08;;;2.97;;
63217;SDS011;49314;48.278;16.378;2023-04-15T11:38:26;3.95;;;3.75;;
63217;SDS011;49314;48.278;16.378;2023-04-15T11:40:51;3.47;;;3.28;;
63217;SDS011;49314;48.278;16.378;2023-04-15T11:43:21;4.63;;;4.32;;
63217;SDS011;49314;48.278;16.378;2023-04-15T11:45:47;2.38;;;2.28;;
63217;SDS011;49314;48.278;16.378;2023-04-15T11:48:13;3.00;;;2.80;;
63217;SDS011;49314;48.278;16.378;2023-04-15T11:50:38;1.70;;;1.70;;
63217;SDS011;49314;48.278;16.378;2023-04-15T11:53:07;2.88;;;2.83;;
63217;SDS011;49314;48.278;16.378;2023-04-15T11:55:54;2.15;;;2.15;;
63217;SDS011;49314;48.278;16.378;2023-04-15T11:58:19;3.53;;;3.33;;
63217;SDS011;49314;48.278;16.378;2023-04-15T12:00:48;2.85;;;2.75;;
63217;SDS011;49314;48.278;16.378;2023-04-15T12:03:17;3.13;;;3.03;;
63217;SDS011;49314;48.278;16.378;2023-04-15T12:08:33;3.20;;;2.95;;
63217;SDS011;49314;48.278;16.378;2023-04-15T12:11:12;2.83;;;2.72;;
63217;SDS011;49314;48.278;16.378;2023-04-15T12:13:37;2.40;;;2.37;;
63217;SDS011;49314;48.278;16.378;2023-04-15T12:16:02;2.15;;;2.10;;
63217;SDS011;49314;48.278;16.378;2023-04-15T12:18:27;2.15;;;2.15;;
63217;SDS011;49314;48.278;16.378;2023-04-15T12:20:53;2.10;;;2.03;;
63217;SDS011;49314;48.278;16.378;2023-04-15T12:23:18;2.22;;;2.22;;
63217;SDS011;49314;48.278;16.378;2023-04-15T12:25:49;2.40;;;2.35;;
63217;SDS011;49314;48.278;16.378;2023-04-15T12:28:16;2.47;;;2.40;;
63217;SDS011;49314;48.278;16.378;2023-04-15T12:30:47;2.90;;;2.80;;
63217;SDS011;49314;48.278;16.378;2023-04-15T12:33:13;2.85;;;2.65;;
63217;SDS011;49314;48.278;16.378;2023-04-15T12:35:38;2.65;;;2.58;;
63217;SDS011;49314;48.278;16.378;2023-04-15T12:38:03;3.60;;;3.50;;
63217;SDS011;49314;48.278;16.378;2023-04-15T12:40:29;3.00;;;2.58;;
63217;SDS011;49314;48.278;16.378;2023-04-15T12:42:54;2.80;;;2.70;;
63217;SDS011;49314;48.278;16.378;2023-04-15T12:45:21;3.08;;;2.95;;
63217;SDS011;49314;48.278;16.378;2023-04-15T12:47:46;2.87;;;2.77;;
63217;SDS011;49314;48.278;16.378;2023-04-15T12:50:11;2.60;;;2.50;;
63217;SDS011;49314;48.278;16.378;2023-04-15T12:52:36;2.85;;;2.75;;
63217;SDS011;49314;48.278;16.378;2023-04-15T12:55:01;3.27;;;3.17;;
63217;SDS011;49314;48.278;16.378;2023-04-15T12:57:27;2.65;;;2.55;;
63217;SDS011;49314;48.278;16.378;2023-04-15T12:59:52;3.07;;;2.97;;
63217;SDS011;49314;48.278;16.378;2023-04-15T13:02:17;3.00;;;2.90;;
63217;SDS011;49314;48.278;16.378;2023-04-15T13:04:45;3.28;;;3.10;;
63217;SDS011;49314;48.278;16.378;2023-04-15T13:07:10;3.05;;;2.95;;
63217;SDS011;49314;48.278;16.378;2023-04-15T13:09:37;3.13;;;3.03;;
63217;SDS011;49314;48.278;16.378;2023-04-15T13:12:03;2.95;;;2.75;;
63217;SDS011;49314;48.278;16.378;2023-04-15T13:14:29;2.33;;;2.22;;
63217;SDS011;49314;48.278;16.378;2023-04-15T13:16:55;2.45;;;2.35;;
63217;SDS011;49314;48.278;16.378;2023-04-15T13:19:20;2.08;;;1.98;;
63217;SDS011;49314;48.278;16.378;2023-04-15T13:21:45;1.35;;;1.35;;
63217;SDS011;49314;48.278;16.378;2023-04-15T13:24:11;2.42;;;2.33;;
63217;SDS011;49314;48.278;16.378;2023-04-15T13:26:36;1.73;;;1.63;;
63217;SDS011;49314;48.278;16.378;2023-04-15T13:29:01;1.30;;;1.20;;
63217;SDS011;49314;48.278;16.378;2023-04-15T13:31:27;7.60;;;6.88;;
63217;SDS011;49314;48.278;16.378;2023-04-15T13:33:52;2.27;;;2.17;;
63217;SDS011;49314;48.278;16.378;2023-04-15T13:36:17;8.93;;;6.90;;
63217;SDS011;49314;48.278;16.378;2023-04-15T13:38:42;7.80;;;6.10;;
63217;SDS011;49314;48.278;16.378;2023-04-15T13:41:08;4.47;;;3.40;;
63217;SDS011;49314;48.278;16.378;2023-04-15T13:43:33;2.38;;;2.08;;
63217;SDS011;49314;48.278;16.378;2023-04-15T13:45:58;2.30;;;2.20;;
63217;SDS011;49314;48.278;16.378;2023-04-15T13:48:23;2.73;;;2.63;;
63217;SDS011;49314;48.278;16.378;2023-04-15T13:50:49;3.25;;;2.97;;
63217;SDS011;49314;48.278;16.378;2023-04-15T13:53:14;2.90;;;2.70;;
63217;SDS011;49314;48.278;16.378;2023-04-15T13:55:40;5.80;;;5.10;;
63217;SDS011;49314;48.278;16.378;2023-04-15T13:58:07;7.53;;;5.10;;
63217;SDS011;49314;48.278;16.378;2023-04-15T14:00:32;13.30;;;7.72;;
63217;SDS011;49314;48.278;16.378;2023-04-15T14:02:57;2.38;;;2.28;;
63217;SDS011;49314;48.278;16.378;2023-04-15T14:05:22;1.97;;;1.80;;
63217;SDS011;49314;48.278;16.378;2023-04-15T14:07:47;2.47;;;2.38;;
63217;SDS011;49314;48.278;16.378;2023-04-15T14:10:13;2.50;;;2.42;;
63217;SDS011;49314;48.278;16.378;2023-04-15T14:12:38;2.47;;;2.40;;
63217;SDS011;49314;48.278;16.378;2023-04-15T14:15:03;3.50;;;3.40;;
63217;SDS011;49314;48.278;16.378;2023-04-15T14:17:29;3.22;;;3.13;;
63217;SDS011;49314;48.278;16.378;2023-04-15T14:19:54;2.97;;;2.88;;
63217;SDS011;49314;48.278;16.378;2023-04-15T14:22:20;2.55;;;2.45;;
63217;SDS011;49314;48.278;16.378;2023-04-15T14:24:45;2.35;;;2.25;;
63217;SDS011;49314;48.278;16.378;2023-04-15T14:27:12;2.50;;;2.40;;
63217;SDS011;49314;48.278;16.378;2023-04-15T14:29:37;2.15;;;2.15;;
63217;SDS011;49314;48.278;16.378;2023-04-15T14:32:03;1.92;;;1.42;;
63217;SDS011;49314;48.278;16.378;2023-04-15T14:34:28;2.55;;;2.45;;
63217;SDS011;49314;48.278;16.378;2023-04-15T14:36:53;4.25;;;3.97;;